sensor_id;sensor_type;location;lat;lon;timestamp;P1;durP1;ratioP1;P2;durP2;ratioP2
9968;SDS011;5025;48.890;9.278;2022-09-12T00:01:19;5.17;;;4.87;;
9968;SDS011;5025;48.890;9.278;2022-09-12T00:03:47;4.73;;;4.50;;
9968;SDS011;5025;48.890;9.278;2022-09-12T00:06:25;4.80;;;4.50;;
9968;SDS011;5025;48.890;9.278;2022-09-12T00:08:53;5.27;;;4.97;;
9968;SDS011;5025;48.890;9.278;2022-09-12T00:11:21;5.07;;;4.77;;
9968;SDS011;5025;48.890;9.278;2022-09-12T00:13:46;5.37;;;5.07;;
9968;SDS011;5025;48.890;9.278;2022-09-12T00:16:13;5.43;;;5.03;;
9968;SDS011;5025;48.890;9.278;2022-09-12T00:18:40;5.00;;;4.70;;
9968;SDS011;5025;48.890;9.278;2022-09-12T00:21:05;5.50;;;5.10;;
9968;SDS011;5025;48.890;9.278;2022-09-12T00:23:31;5.07;;;4.73;;
9968;SDS011;5025;48.890;9.278;2022-09-12T00:25:57;5.20;;;4.90;;
9968;SDS011;5025;48.890;9.278;2022-09-12T00:28:23;5.80;;;5.40;;
9968;SDS011;5025;48.890;9.278;2022-09-12T00:30:48;6.00;;;5.70;;
9968;SDS011;5025;48.890;9.278;2022-09-12T00:33:14;5.30;;;5.00;;
9968;SDS011;5025;48.890;9.278;2022-09-12T00:35:44;5.40;;;5.00;;
9968;SDS011;5025;48.890;9.278;2022-09-12T00:38:12;5.57;;;5.27;;
9968;SDS011;5025;48.890;9.278;2022-09-12T00:40:38;6.17;;;5.73;;
9968;SDS011;5025;48.890;9.278;2022-09-12T00:43:05;5.57;;;5.13;;
9968;SDS011;5025;48.890;9.278;2022-09-12T00:45:34;5.47;;;5.17;;
9968;SDS011;5025;48.890;9.278;2022-09-12T00:48:00;5.70;;;5.40;;
9968;SDS011;5025;48.890;9.278;2022-09-12T00:50:28;6.03;;;5.63;;
9968;SDS011;5025;48.890;9.278;2022-09-12T00:53:02;6.07;;;5.47;;
9968;SDS011;5025;48.890;9.278;2022-09-12T00:55:32;5.67;;;5.30;;
9968;SDS011;5025;48.890;9.278;2022-09-12T00:58:09;5.63;;;5.23;;
9968;SDS011;5025;48.890;9.278;2022-09-12T01:00:49;6.30;;;5.80;;
9968;SDS011;5025;48.890;9.278;2022-09-12T01:03:15;5.93;;;5.53;;
9968;SDS011;5025;48.890;9.278;2022-09-12T01:05:48;6.10;;;5.70;;
9968;SDS011;5025;48.890;9.278;2022-09-12T01:08:23;5.83;;;5.43;;
9968;SDS011;5025;48.890;9.278;2022-09-12T01:10:50;6.07;;;5.77;;
9968;SDS011;5025;48.890;9.278;2022-09-12T01:13:16;5.63;;;5.33;;
9968;SDS011;5025;48.890;9.278;2022-09-12T01:15:41;5.90;;;5.50;;
9968;SDS011;5025;48.890;9.278;2022-09-12T01:20:57;6.00;;;5.60;;
9968;SDS011;5025;48.890;9.278;2022-09-12T01:23:42;6.07;;;5.63;;
9968;SDS011;5025;48.890;9.278;2022-09-12T01:34:30;5.73;;;5.33;;
9968;SDS011;5025;48.890;9.278;2022-09-12T01:37:04;5.57;;;5.27;;
9968;SDS011;5025;48.890;9.278;2022-09-12T01:39:38;5.80;;;5.50;;
9968;SDS011;5025;48.890;9.278;2022-09-12T01:42:24;6.10;;;5.70;;
9968;SDS011;5025;48.890;9.278;2022-09-12T01:45:00;5.83;;;5.53;;
9968;SDS011;5025;48.890;9.278;2022-09-12T01:47:44;5.63;;;5.33;;
9968;SDS011;5025;48.890;9.278;2022-09-12T01:50:17;6.27;;;5.87;;
9968;SDS011;5025;48.890;9.278;2022-09-12T01:52:55;5.90;;;5.50;;
9968;SDS011;5025;48.890;9.278;2022-09-12T01:55:33;6.07;;;5.67;;
9968;SDS011;5025;48.890;9.278;2022-09-12T01:58:15;5.60;;;5.30;;
9968;SDS011;5025;48.890;9.278;2022-09-12T02:00:47;5.87;;;5.47;;
9968;SDS011;5025;48.890;9.278;2022-09-12T02:03:21;5.50;;;5.20;;
9968;SDS011;5025;48.890;9.278;2022-09-12T02:05:56;6.13;;;5.63;;
9968;SDS011;5025;48.890;9.278;2022-09-12T02:08:28;6.33;;;5.90;;
9968;SDS011;5025;48.890;9.278;2022-09-12T02:11:03;5.97;;;5.50;;
9968;SDS011;5025;48.890;9.278;2022-09-12T02:13:39;5.70;;;5.40;;
9968;SDS011;5025;48.890;9.278;2022-09-12T02:16:34;6.47;;;6.07;;
9968;SDS011;5025;48.890;9.278;2022-09-12T02:19:23;5.37;;;5.07;;
9968;SDS011;5025;48.890;9.278;2022-09-12T02:21:57;5.97;;;5.57;;
9968;SDS011;5025;48.890;9.278;2022-09-12T02:24:38;5.80;;;5.40;;
9968;SDS011;5025;48.890;9.278;2022-09-12T02:29:44;6.20;;;5.80;;
9968;SDS011;5025;48.890;9.278;2022-09-12T02:40:13;6.27;;;5.87;;
9968;SDS011;5025;48.890;9.278;2022-09-12T02:42:39;6.17;;;5.67;;
9968;SDS011;5025;48.890;9.278;2022-09-12T02:45:05;5.97;;;5.53;;
9968;SDS011;5025;48.890;9.278;2022-09-12T02:47:33;6.10;;;5.70;;
9968;SDS011;5025;48.890;9.278;2022-09-12T02:50:03;5.80;;;5.50;;
9968;SDS011;5025;48.890;9.278;2022-09-12T02:52:29;5.90;;;5.50;;
9968;SDS011;5025;48.890;9.278;2022-09-12T02:54:56;6.00;;;5.60;;
9968;SDS011;5025;48.890;9.278;2022-09-12T02:57:22;5.57;;;5.27;;
9968;SDS011;5025;48.890;9.278;2022-09-12T02:59:48;5.80;;;5.40;;
9968;SDS011;5025;48.890;9.278;2022-09-12T03:02:36;6.03;;;5.57;;
9968;SDS011;5025;48.890;9.278;2022-09-12T03:05:46;5.67;;;5.30;;
9968;SDS011;5025;48.890;9.278;2022-09-12T03:08:20;5.70;;;5.20;;
9968;SDS011;5025;48.890;9.278;2022-09-12T03:14:34;5.40;;;5.10;;
9968;SDS011;5025;48.890;9.278;2022-09-12T03:17:20;6.00;;;5.60;;
9968;SDS011;5025;48.890;9.278;2022-09-12T03:20:02;5.90;;;5.60;;
9968;SDS011;5025;48.890;9.278;2022-09-12T03:22:57;5.87;;;5.47;;
9968;SDS011;5025;48.890;9.278;2022-09-12T03:28:06;5.90;;;5.50;;
9968;SDS011;5025;48.890;9.278;2022-09-12T03:30:39;6.50;;;6.10;;
9968;SDS011;5025;48.890;9.278;2022-09-12T03:33:09;6.47;;;6.07;;
9968;SDS011;5025;48.890;9.278;2022-09-12T03:35:36;6.00;;;5.60;;
9968;SDS011;5025;48.890;9.278;2022-09-12T03:38:01;6.17;;;5.77;;
9968;SDS011;5025;48.890;9.278;2022-09-12T03:40:27;6.03;;;5.63;;
9968;SDS011;5025;48.890;9.278;2022-09-12T03:42:52;6.07;;;5.67;;
9968;SDS011;5025;48.890;9.278;2022-09-12T03:45:18;5.90;;;5.50;;
9968;SDS011;5025;48.890;9.278;2022-09-12T03:47:43;5.97;;;5.57;;
9968;SDS011;5025;48.890;9.278;2022-09-12T03:50:09;6.03;;;5.63;;
9968;SDS011;5025;48.890;9.278;2022-09-12T03:52:34;5.80;;;5.40;;
9968;SDS011;5025;48.890;9.278;2022-09-12T03:54:59;5.53;;;5.20;;
9968;SDS011;5025;48.890;9.278;2022-09-12T03:57:25;5.97;;;5.57;;
9968;SDS011;5025;48.890;9.278;2022-09-12T03:59:50;6.43;;;5.93;;
9968;SDS011;5025;48.890;9.278;2022-09-12T04:02:16;5.70;;;5.30;;
9968;SDS011;5025;48.890;9.278;2022-09-12T04:04:41;6.47;;;6.07;;
9968;SDS011;5025;48.890;9.278;2022-09-12T04:07:08;6.23;;;5.73;;
9968;SDS011;5025;48.890;9.278;2022-09-12T04:09:34;6.40;;;5.90;;
9968;SDS011;5025;48.890;9.278;2022-09-12T04:11:59;6.03;;;5.53;;
9968;SDS011;5025;48.890;9.278;2022-09-12T04:14:25;6.33;;;5.83;;
9968;SDS011;5025;48.890;9.278;2022-09-12T04:16:50;6.10;;;5.70;;
9968;SDS011;5025;48.890;9.278;2022-09-12T04:19:16;6.00;;;5.60;;
9968;SDS011;5025;48.890;9.278;2022-09-12T04:21:41;5.87;;;5.47;;
9968;SDS011;5025;48.890;9.278;2022-09-12T04:24:06;5.93;;;5.53;;
9968;SDS011;5025;48.890;9.278;2022-09-12T04:26:32;6.07;;;5.67;;
9968;SDS011;5025;48.890;9.278;2022-09-12T04:28:57;6.53;;;5.93;;
9968;SDS011;5025;48.890;9.278;2022-09-12T04:31:23;7.60;;;7.10;;
9968;SDS011;5025;48.890;9.278;2022-09-12T04:33:56;8.27;;;7.67;;
9968;SDS011;5025;48.890;9.278;2022-09-12T04:36:23;9.00;;;8.13;;
9968;SDS011;5025;48.890;9.278;2022-09-12T04:38:50;8.97;;;8.27;;
9968;SDS011;5025;48.890;9.278;2022-09-12T04:41:17;8.40;;;7.80;;
9968;SDS011;5025;48.890;9.278;2022-09-12T04:43:45;9.30;;;8.60;;
9968;SDS011;5025;48.890;9.278;2022-09-12T04:46:11;8.10;;;7.50;;
9968;SDS011;5025;48.890;9.278;2022-09-12T04:48:39;8.40;;;7.70;;
9968;SDS011;5025;48.890;9.278;2022-09-12T04:51:27;8.60;;;7.90;;
9968;SDS011;5025;48.890;9.278;2022-09-12T04:53:52;8.80;;;8.10;;
9968;SDS011;5025;48.890;9.278;2022-09-12T04:56:19;8.57;;;7.97;;
9968;SDS011;5025;48.890;9.278;2022-09-12T04:58:46;7.70;;;7.20;;
9968;SDS011;5025;48.890;9.278;2022-09-12T05:01:12;7.67;;;7.10;;
9968;SDS011;5025;48.890;9.278;2022-09-12T05:03:40;6.87;;;6.37;;
9968;SDS011;5025;48.890;9.278;2022-09-12T05:06:09;7.90;;;7.30;;
9968;SDS011;5025;48.890;9.278;2022-09-12T05:08:37;6.97;;;6.47;;
9968;SDS011;5025;48.890;9.278;2022-09-12T05:11:03;6.57;;;6.10;;
9968;SDS011;5025;48.890;9.278;2022-09-12T05:13:31;6.07;;;5.67;;
9968;SDS011;5025;48.890;9.278;2022-09-12T05:15:57;6.53;;;6.10;;
9968;SDS011;5025;48.890;9.278;2022-09-12T05:18:24;6.73;;;6.23;;
9968;SDS011;5025;48.890;9.278;2022-09-12T05:20:50;6.60;;;6.10;;
9968;SDS011;5025;48.890;9.278;2022-09-12T05:23:16;6.40;;;6.00;;
9968;SDS011;5025;48.890;9.278;2022-09-12T05:25:51;7.00;;;6.50;;
9968;SDS011;5025;48.890;9.278;2022-09-12T05:28:17;6.77;;;6.17;;
9968;SDS011;5025;48.890;9.278;2022-09-12T05:30:45;6.30;;;5.90;;
9968;SDS011;5025;48.890;9.278;2022-09-12T05:33:10;5.97;;;5.57;;
9968;SDS011;5025;48.890;9.278;2022-09-12T05:35:36;6.10;;;5.70;;
9968;SDS011;5025;48.890;9.278;2022-09-12T05:38:02;5.70;;;5.30;;
9968;SDS011;5025;48.890;9.278;2022-09-12T05:40:28;5.07;;;4.77;;
9968;SDS011;5025;48.890;9.278;2022-09-12T05:42:54;5.50;;;5.20;;
9968;SDS011;5025;48.890;9.278;2022-09-12T05:45:19;5.73;;;5.33;;
9968;SDS011;5025;48.890;9.278;2022-09-12T05:47:45;5.50;;;5.20;;
9968;SDS011;5025;48.890;9.278;2022-09-12T05:50:11;5.77;;;5.37;;
9968;SDS011;5025;48.890;9.278;2022-09-12T05:52:36;5.40;;;5.10;;
9968;SDS011;5025;48.890;9.278;2022-09-12T05:55:02;5.57;;;5.23;;
9968;SDS011;5025;48.890;9.278;2022-09-12T05:57:28;5.57;;;5.27;;
9968;SDS011;5025;48.890;9.278;2022-09-12T05:59:54;5.27;;;4.97;;
9968;SDS011;5025;48.890;9.278;2022-09-12T06:02:19;5.67;;;5.27;;
9968;SDS011;5025;48.890;9.278;2022-09-12T06:04:45;5.33;;;5.03;;
9968;SDS011;5025;48.890;9.278;2022-09-12T06:07:10;5.43;;;5.03;;
9968;SDS011;5025;48.890;9.278;2022-09-12T06:09:36;5.60;;;5.20;;
9968;SDS011;5025;48.890;9.278;2022-09-12T06:12:01;5.50;;;5.10;;
9968;SDS011;5025;48.890;9.278;2022-09-12T06:14:27;5.83;;;5.43;;
9968;SDS011;5025;48.890;9.278;2022-09-12T06:16:53;5.30;;;4.90;;
9968;SDS011;5025;48.890;9.278;2022-09-12T06:19:18;5.23;;;4.93;;
9968;SDS011;5025;48.890;9.278;2022-09-12T06:21:46;5.53;;;5.13;;
9968;SDS011;5025;48.890;9.278;2022-09-12T06:24:16;6.07;;;5.57;;
9968;SDS011;5025;48.890;9.278;2022-09-12T06:26:41;5.23;;;4.93;;
9968;SDS011;5025;48.890;9.278;2022-09-12T06:29:08;5.87;;;5.47;;
9968;SDS011;5025;48.890;9.278;2022-09-12T06:31:36;5.80;;;5.40;;
9968;SDS011;5025;48.890;9.278;2022-09-12T06:34:03;5.60;;;5.30;;
9968;SDS011;5025;48.890;9.278;2022-09-12T06:36:35;5.83;;;5.43;;
9968;SDS011;5025;48.890;9.278;2022-09-12T06:39:03;6.37;;;5.87;;
9968;SDS011;5025;48.890;9.278;2022-09-12T06:41:31;5.70;;;5.40;;
9968;SDS011;5025;48.890;9.278;2022-09-12T06:43:57;5.37;;;5.07;;
9968;SDS011;5025;48.890;9.278;2022-09-12T06:46:24;5.50;;;5.20;;
9968;SDS011;5025;48.890;9.278;2022-09-12T06:48:50;5.57;;;5.27;;
9968;SDS011;5025;48.890;9.278;2022-09-12T06:51:16;6.00;;;5.60;;
9968;SDS011;5025;48.890;9.278;2022-09-12T06:53:44;6.77;;;6.27;;
9968;SDS011;5025;48.890;9.278;2022-09-12T06:56:11;6.60;;;6.20;;
9968;SDS011;5025;48.890;9.278;2022-09-12T06:58:48;6.80;;;6.40;;
9968;SDS011;5025;48.890;9.278;2022-09-12T07:01:18;6.40;;;6.00;;
9968;SDS011;5025;48.890;9.278;2022-09-12T07:03:48;6.40;;;5.90;;
9968;SDS011;5025;48.890;9.278;2022-09-12T07:06:16;7.27;;;6.77;;
9968;SDS011;5025;48.890;9.278;2022-09-12T07:08:43;7.23;;;6.63;;
9968;SDS011;5025;48.890;9.278;2022-09-12T07:13:35;7.20;;;6.80;;
9968;SDS011;5025;48.890;9.278;2022-09-12T07:16:02;8.17;;;7.67;;
9968;SDS011;5025;48.890;9.278;2022-09-12T07:18:29;7.80;;;7.30;;
9968;SDS011;5025;48.890;9.278;2022-09-12T07:20:55;7.60;;;7.10;;
9968;SDS011;5025;48.890;9.278;2022-09-12T07:23:21;8.30;;;7.67;;
9968;SDS011;5025;48.890;9.278;2022-09-12T07:25:52;7.57;;;7.10;;
9968;SDS011;5025;48.890;9.278;2022-09-12T07:28:21;8.37;;;7.77;;
9968;SDS011;5025;48.890;9.278;2022-09-12T07:30:48;8.00;;;7.50;;
9968;SDS011;5025;48.890;9.278;2022-09-12T07:33:14;7.07;;;6.67;;
9968;SDS011;5025;48.890;9.278;2022-09-12T07:35:39;7.03;;;6.53;;
9968;SDS011;5025;48.890;9.278;2022-09-12T07:38:04;7.10;;;6.70;;
9968;SDS011;5025;48.890;9.278;2022-09-12T07:40:30;8.00;;;7.40;;
9968;SDS011;5025;48.890;9.278;2022-09-12T07:42:55;8.27;;;7.67;;
9968;SDS011;5025;48.890;9.278;2022-09-12T07:45:20;8.10;;;7.60;;
9968;SDS011;5025;48.890;9.278;2022-09-12T07:47:45;8.30;;;7.60;;
9968;SDS011;5025;48.890;9.278;2022-09-12T07:50:11;7.67;;;7.17;;
9968;SDS011;5025;48.890;9.278;2022-09-12T07:52:36;7.23;;;6.73;;
9968;SDS011;5025;48.890;9.278;2022-09-12T07:55:01;7.10;;;6.63;;
9968;SDS011;5025;48.890;9.278;2022-09-12T07:57:27;7.97;;;7.47;;
9968;SDS011;5025;48.890;9.278;2022-09-12T07:59:52;8.20;;;7.60;;
9968;SDS011;5025;48.890;9.278;2022-09-12T08:02:18;7.73;;;7.23;;
9968;SDS011;5025;48.890;9.278;2022-09-12T08:04:43;8.80;;;8.20;;
9968;SDS011;5025;48.890;9.278;2022-09-12T08:07:08;9.03;;;8.33;;
9968;SDS011;5025;48.890;9.278;2022-09-12T08:09:34;8.70;;;8.00;;
9968;SDS011;5025;48.890;9.278;2022-09-12T08:12:00;7.83;;;7.23;;
9968;SDS011;5025;48.890;9.278;2022-09-12T08:14:25;7.90;;;7.30;;
9968;SDS011;5025;48.890;9.278;2022-09-12T08:16:51;7.37;;;6.87;;
9968;SDS011;5025;48.890;9.278;2022-09-12T08:19:17;7.70;;;7.20;;
9968;SDS011;5025;48.890;9.278;2022-09-12T08:21:42;7.50;;;7.00;;
9968;SDS011;5025;48.890;9.278;2022-09-12T08:24:09;7.60;;;7.00;;
9968;SDS011;5025;48.890;9.278;2022-09-12T08:26:36;8.83;;;8.13;;
9968;SDS011;5025;48.890;9.278;2022-09-12T08:29:01;7.03;;;6.53;;
9968;SDS011;5025;48.890;9.278;2022-09-12T08:31:28;7.07;;;6.63;;
9968;SDS011;5025;48.890;9.278;2022-09-12T08:33:54;7.43;;;6.83;;
9968;SDS011;5025;48.890;9.278;2022-09-12T08:36:21;6.97;;;6.50;;
9968;SDS011;5025;48.890;9.278;2022-09-12T08:38:49;6.47;;;6.07;;
9968;SDS011;5025;48.890;9.278;2022-09-12T08:41:22;6.40;;;6.00;;
9968;SDS011;5025;48.890;9.278;2022-09-12T08:46:51;6.87;;;6.40;;
9968;SDS011;5025;48.890;9.278;2022-09-12T08:49:44;6.03;;;5.63;;
9968;SDS011;5025;48.890;9.278;2022-09-12T08:52:17;6.07;;;5.67;;
9968;SDS011;5025;48.890;9.278;2022-09-12T08:54:45;5.73;;;5.40;;
9968;SDS011;5025;48.890;9.278;2022-09-12T08:57:11;5.70;;;5.30;;
9968;SDS011;5025;48.890;9.278;2022-09-12T08:59:39;5.73;;;5.43;;
9968;SDS011;5025;48.890;9.278;2022-09-12T09:02:20;5.60;;;5.30;;
9968;SDS011;5025;48.890;9.278;2022-09-12T09:04:58;5.23;;;4.93;;
9968;SDS011;5025;48.890;9.278;2022-09-12T09:10:33;5.93;;;5.63;;
9968;SDS011;5025;48.890;9.278;2022-09-12T09:16:32;5.27;;;4.97;;
9968;SDS011;5025;48.890;9.278;2022-09-12T09:19:02;5.10;;;4.90;;
9968;SDS011;5025;48.890;9.278;2022-09-12T09:21:37;5.17;;;4.87;;
9968;SDS011;5025;48.890;9.278;2022-09-12T09:24:12;5.10;;;4.80;;
9968;SDS011;5025;48.890;9.278;2022-09-12T09:29:35;4.50;;;4.30;;
9968;SDS011;5025;48.890;9.278;2022-09-12T09:32:09;4.33;;;4.13;;
9968;SDS011;5025;48.890;9.278;2022-09-12T09:34:43;4.10;;;3.90;;
9968;SDS011;5025;48.890;9.278;2022-09-12T09:39:44;4.33;;;4.13;;
9968;SDS011;5025;48.890;9.278;2022-09-12T09:42:16;3.90;;;3.70;;
9968;SDS011;5025;48.890;9.278;2022-09-12T09:45:02;4.80;;;4.50;;
9968;SDS011;5025;48.890;9.278;2022-09-12T09:47:40;5.23;;;4.93;;
9968;SDS011;5025;48.890;9.278;2022-09-12T09:50:11;5.77;;;5.37;;
9968;SDS011;5025;48.890;9.278;2022-09-12T09:52:40;5.50;;;5.10;;
9968;SDS011;5025;48.890;9.278;2022-09-12T09:55:09;4.80;;;4.60;;
9968;SDS011;5025;48.890;9.278;2022-09-12T09:57:39;4.40;;;4.10;;
9968;SDS011;5025;48.890;9.278;2022-09-12T10:00:18;4.33;;;4.13;;
9968;SDS011;5025;48.890;9.278;2022-09-12T10:02:57;3.90;;;3.70;;
9968;SDS011;5025;48.890;9.278;2022-09-12T10:05:46;3.97;;;3.67;;
9968;SDS011;5025;48.890;9.278;2022-09-12T10:08:30;3.80;;;3.60;;
9968;SDS011;5025;48.890;9.278;2022-09-12T10:10:59;4.00;;;3.70;;
9968;SDS011;5025;48.890;9.278;2022-09-12T10:13:42;4.20;;;3.80;;
9968;SDS011;5025;48.890;9.278;2022-09-12T10:16:30;3.90;;;3.70;;
9968;SDS011;5025;48.890;9.278;2022-09-12T10:18:58;3.80;;;3.50;;
9968;SDS011;5025;48.890;9.278;2022-09-12T10:21:34;3.80;;;3.60;;
9968;SDS011;5025;48.890;9.278;2022-09-12T10:24:05;3.40;;;3.20;;
9968;SDS011;5025;48.890;9.278;2022-09-12T10:26:32;3.30;;;3.20;;
9968;SDS011;5025;48.890;9.278;2022-09-12T10:29:03;3.27;;;3.17;;
9968;SDS011;5025;48.890;9.278;2022-09-12T10:31:35;3.00;;;2.90;;
9968;SDS011;5025;48.890;9.278;2022-09-12T10:34:18;3.03;;;2.93;;
9968;SDS011;5025;48.890;9.278;2022-09-12T10:36:46;3.53;;;3.40;;
9968;SDS011;5025;48.890;9.278;2022-09-12T10:39:16;3.60;;;3.40;;
9968;SDS011;5025;48.890;9.278;2022-09-12T10:41:42;3.00;;;2.90;;
9968;SDS011;5025;48.890;9.278;2022-09-12T10:44:22;3.10;;;2.90;;
9968;SDS011;5025;48.890;9.278;2022-09-12T10:46:50;2.83;;;2.73;;
9968;SDS011;5025;48.890;9.278;2022-09-12T10:49:21;3.10;;;3.00;;
9968;SDS011;5025;48.890;9.278;2022-09-12T10:51:48;2.97;;;2.87;;
9968;SDS011;5025;48.890;9.278;2022-09-12T10:54:18;2.90;;;2.80;;
9968;SDS011;5025;48.890;9.278;2022-09-12T11:07:37;2.40;;;2.30;;
9968;SDS011;5025;48.890;9.278;2022-09-12T11:13:11;2.10;;;2.00;;
9968;SDS011;5025;48.890;9.278;2022-09-12T11:15:44;2.40;;;2.30;;
9968;SDS011;5025;48.890;9.278;2022-09-12T11:24:02;2.10;;;2.00;;
9968;SDS011;5025;48.890;9.278;2022-09-12T11:37:44;1.87;;;1.87;;
9968;SDS011;5025;48.890;9.278;2022-09-12T11:40:37;2.20;;;2.10;;
9968;SDS011;5025;48.890;9.278;2022-09-12T11:45:40;1.90;;;1.80;;
9968;SDS011;5025;48.890;9.278;2022-09-12T11:48:13;2.10;;;2.10;;
9968;SDS011;5025;48.890;9.278;2022-09-12T11:50:56;2.10;;;2.00;;
9968;SDS011;5025;48.890;9.278;2022-09-12T11:53:27;2.30;;;2.10;;
9968;SDS011;5025;48.890;9.278;2022-09-12T11:56:05;2.03;;;1.93;;
9968;SDS011;5025;48.890;9.278;2022-09-12T11:58:38;1.90;;;1.90;;
9968;SDS011;5025;48.890;9.278;2022-09-12T12:01:40;2.10;;;2.10;;
9968;SDS011;5025;48.890;9.278;2022-09-12T12:04:04;1.60;;;1.60;;
9968;SDS011;5025;48.890;9.278;2022-09-12T12:06:56;1.90;;;1.80;;
9968;SDS011;5025;48.890;9.278;2022-09-12T12:09:31;1.60;;;1.60;;
9968;SDS011;5025;48.890;9.278;2022-09-12T12:11:57;1.63;;;1.63;;
9968;SDS011;5025;48.890;9.278;2022-09-12T12:14:39;1.63;;;1.60;;
9968;SDS011;5025;48.890;9.278;2022-09-12T12:17:12;1.67;;;1.67;;
9968;SDS011;5025;48.890;9.278;2022-09-12T12:19:46;1.50;;;1.50;;
9968;SDS011;5025;48.890;9.278;2022-09-12T12:22:22;1.47;;;1.47;;
9968;SDS011;5025;48.890;9.278;2022-09-12T12:24:53;1.50;;;1.50;;
9968;SDS011;5025;48.890;9.278;2022-09-12T12:33:50;1.40;;;1.40;;
9968;SDS011;5025;48.890;9.278;2022-09-12T12:35:43;1.40;;;1.40;;
9968;SDS011;5025;48.890;9.278;2022-09-12T12:40:53;1.33;;;1.33;;
9968;SDS011;5025;48.890;9.278;2022-09-12T12:43:38;1.40;;;1.40;;
9968;SDS011;5025;48.890;9.278;2022-09-12T12:46:04;1.60;;;1.60;;
9968;SDS011;5025;48.890;9.278;2022-09-12T12:48:32;1.33;;;1.33;;
9968;SDS011;5025;48.890;9.278;2022-09-12T12:54:01;1.20;;;1.20;;
9968;SDS011;5025;48.890;9.278;2022-09-12T12:56:38;1.20;;;1.20;;
9968;SDS011;5025;48.890;9.278;2022-09-12T12:59:14;1.13;;;1.13;;
9968;SDS011;5025;48.890;9.278;2022-09-12T13:01:44;1.20;;;1.20;;
9968;SDS011;5025;48.890;9.278;2022-09-12T13:04:14;1.30;;;1.30;;
9968;SDS011;5025;48.890;9.278;2022-09-12T13:06:43;1.40;;;1.30;;
9968;SDS011;5025;48.890;9.278;2022-09-12T13:12:28;1.30;;;1.30;;
9968;SDS011;5025;48.890;9.278;2022-09-12T13:14:57;1.40;;;1.40;;
9968;SDS011;5025;48.890;9.278;2022-09-12T13:22:38;1.40;;;1.40;;
9968;SDS011;5025;48.890;9.278;2022-09-12T13:25:19;1.33;;;1.33;;
9968;SDS011;5025;48.890;9.278;2022-09-12T13:30:35;1.47;;;1.43;;
9968;SDS011;5025;48.890;9.278;2022-09-12T13:33:06;1.20;;;1.20;;
9968;SDS011;5025;48.890;9.278;2022-09-12T13:41:45;1.10;;;1.10;;
9968;SDS011;5025;48.890;9.278;2022-09-12T13:44:19;1.20;;;1.20;;
9968;SDS011;5025;48.890;9.278;2022-09-12T13:46:47;1.20;;;1.20;;
9968;SDS011;5025;48.890;9.278;2022-09-12T13:52:27;1.10;;;1.10;;
9968;SDS011;5025;48.890;9.278;2022-09-12T13:54:51;1.30;;;1.20;;
9968;SDS011;5025;48.890;9.278;2022-09-12T13:57:35;1.00;;;1.00;;
9968;SDS011;5025;48.890;9.278;2022-09-12T14:00:09;1.10;;;1.10;;
9968;SDS011;5025;48.890;9.278;2022-09-12T14:02:43;1.07;;;1.07;;
9968;SDS011;5025;48.890;9.278;2022-09-12T14:05:13;0.93;;;0.93;;
9968;SDS011;5025;48.890;9.278;2022-09-12T14:10:33;1.10;;;1.10;;
9968;SDS011;5025;48.890;9.278;2022-09-12T14:13:01;1.20;;;1.20;;
9968;SDS011;5025;48.890;9.278;2022-09-12T14:15:30;1.20;;;1.20;;
9968;SDS011;5025;48.890;9.278;2022-09-12T14:17:59;0.90;;;0.90;;
9968;SDS011;5025;48.890;9.278;2022-09-12T14:20:27;1.00;;;1.00;;
9968;SDS011;5025;48.890;9.278;2022-09-12T14:23:30;1.00;;;1.00;;
9968;SDS011;5025;48.890;9.278;2022-09-12T14:25:53;0.90;;;0.90;;
9968;SDS011;5025;48.890;9.278;2022-09-12T14:28:20;1.00;;;1.00;;
9968;SDS011;5025;48.890;9.278;2022-09-12T14:31:00;1.10;;;1.10;;
9968;SDS011;5025;48.890;9.278;2022-09-12T14:33:31;1.17;;;1.17;;
9968;SDS011;5025;48.890;9.278;2022-09-12T14:36:23;1.10;;;1.10;;
9968;SDS011;5025;48.890;9.278;2022-09-12T14:38:52;1.17;;;1.17;;
9968;SDS011;5025;48.890;9.278;2022-09-12T14:41:27;1.20;;;1.10;;
9968;SDS011;5025;48.890;9.278;2022-09-12T14:43:59;1.20;;;1.20;;
9968;SDS011;5025;48.890;9.278;2022-09-12T14:48:58;1.07;;;1.07;;
9968;SDS011;5025;48.890;9.278;2022-09-12T14:51:32;1.10;;;1.10;;
9968;SDS011;5025;48.890;9.278;2022-09-12T14:54:00;1.00;;;1.00;;
9968;SDS011;5025;48.890;9.278;2022-09-12T14:56:40;0.83;;;0.83;;
9968;SDS011;5025;48.890;9.278;2022-09-12T14:59:25;1.20;;;1.10;;
9968;SDS011;5025;48.890;9.278;2022-09-12T15:04:41;0.90;;;0.90;;
9968;SDS011;5025;48.890;9.278;2022-09-12T15:09:58;1.00;;;1.00;;
9968;SDS011;5025;48.890;9.278;2022-09-12T15:12:26;1.00;;;1.00;;
9968;SDS011;5025;48.890;9.278;2022-09-12T15:15:03;0.93;;;0.93;;
9968;SDS011;5025;48.890;9.278;2022-09-12T15:17:37;0.90;;;0.90;;
9968;SDS011;5025;48.890;9.278;2022-09-12T15:20:03;0.80;;;0.80;;
9968;SDS011;5025;48.890;9.278;2022-09-12T15:22:29;1.00;;;1.00;;
9968;SDS011;5025;48.890;9.278;2022-09-12T15:24:57;0.90;;;0.90;;
9968;SDS011;5025;48.890;9.278;2022-09-12T15:27:23;1.00;;;1.00;;
9968;SDS011;5025;48.890;9.278;2022-09-12T15:29:54;0.90;;;0.90;;
9968;SDS011;5025;48.890;9.278;2022-09-12T15:32:25;0.90;;;0.90;;
9968;SDS011;5025;48.890;9.278;2022-09-12T15:34:53;0.90;;;0.90;;
9968;SDS011;5025;48.890;9.278;2022-09-12T15:37:19;1.17;;;1.00;;
9968;SDS011;5025;48.890;9.278;2022-09-12T15:39:46;1.00;;;1.00;;
9968;SDS011;5025;48.890;9.278;2022-09-12T15:42:12;0.97;;;0.97;;
9968;SDS011;5025;48.890;9.278;2022-09-12T15:44:41;0.93;;;0.93;;
9968;SDS011;5025;48.890;9.278;2022-09-12T15:47:13;0.80;;;0.80;;
9968;SDS011;5025;48.890;9.278;2022-09-12T15:49:38;0.90;;;0.90;;
9968;SDS011;5025;48.890;9.278;2022-09-12T15:52:08;0.87;;;0.87;;
9968;SDS011;5025;48.890;9.278;2022-09-12T15:54:38;0.90;;;0.90;;
9968;SDS011;5025;48.890;9.278;2022-09-12T15:57:08;1.70;;;1.20;;
9968;SDS011;5025;48.890;9.278;2022-09-12T15:59:34;0.90;;;0.90;;
9968;SDS011;5025;48.890;9.278;2022-09-12T16:02:00;0.90;;;0.90;;
9968;SDS011;5025;48.890;9.278;2022-09-12T16:04:27;1.00;;;1.00;;
9968;SDS011;5025;48.890;9.278;2022-09-12T16:06:54;0.90;;;0.90;;
9968;SDS011;5025;48.890;9.278;2022-09-12T16:09:21;0.90;;;0.90;;
9968;SDS011;5025;48.890;9.278;2022-09-12T16:11:56;0.83;;;0.83;;
9968;SDS011;5025;48.890;9.278;2022-09-12T16:14:25;1.60;;;1.03;;
9968;SDS011;5025;48.890;9.278;2022-09-12T16:16:51;1.03;;;1.03;;
9968;SDS011;5025;48.890;9.278;2022-09-12T16:19:21;1.00;;;1.00;;
9968;SDS011;5025;48.890;9.278;2022-09-12T16:21:46;0.87;;;0.87;;
9968;SDS011;5025;48.890;9.278;2022-09-12T16:24:12;0.90;;;0.90;;
9968;SDS011;5025;48.890;9.278;2022-09-12T16:26:37;0.80;;;0.80;;
9968;SDS011;5025;48.890;9.278;2022-09-12T16:29:06;0.83;;;0.83;;
9968;SDS011;5025;48.890;9.278;2022-09-12T16:31:31;1.00;;;1.00;;
9968;SDS011;5025;48.890;9.278;2022-09-12T16:33:57;0.80;;;0.80;;
9968;SDS011;5025;48.890;9.278;2022-09-12T16:36:22;0.83;;;0.83;;
9968;SDS011;5025;48.890;9.278;2022-09-12T16:38:53;0.87;;;0.87;;
9968;SDS011;5025;48.890;9.278;2022-09-12T16:41:23;1.27;;;1.00;;
9968;SDS011;5025;48.890;9.278;2022-09-12T16:43:52;0.90;;;0.90;;
9968;SDS011;5025;48.890;9.278;2022-09-12T16:46:21;0.70;;;0.70;;
9968;SDS011;5025;48.890;9.278;2022-09-12T16:48:48;1.00;;;1.00;;
9968;SDS011;5025;48.890;9.278;2022-09-12T16:51:15;1.00;;;1.00;;
9968;SDS011;5025;48.890;9.278;2022-09-12T16:53:44;0.80;;;0.80;;
9968;SDS011;5025;48.890;9.278;2022-09-12T16:56:10;0.90;;;0.90;;
9968;SDS011;5025;48.890;9.278;2022-09-12T16:58:36;0.90;;;0.90;;
9968;SDS011;5025;48.890;9.278;2022-09-12T17:03:37;1.00;;;1.00;;
9968;SDS011;5025;48.890;9.278;2022-09-12T17:06:09;1.30;;;1.20;;
9968;SDS011;5025;48.890;9.278;2022-09-12T17:08:41;1.00;;;1.00;;
9968;SDS011;5025;48.890;9.278;2022-09-12T17:11:16;1.00;;;0.93;;
9968;SDS011;5025;48.890;9.278;2022-09-12T17:13:50;1.30;;;1.30;;
9968;SDS011;5025;48.890;9.278;2022-09-12T17:16:28;1.00;;;1.00;;
9968;SDS011;5025;48.890;9.278;2022-09-12T17:18:56;1.10;;;1.10;;
9968;SDS011;5025;48.890;9.278;2022-09-12T17:21:22;1.07;;;1.07;;
9968;SDS011;5025;48.890;9.278;2022-09-12T17:23:47;1.27;;;1.17;;
9968;SDS011;5025;48.890;9.278;2022-09-12T17:26:13;1.40;;;1.30;;
9968;SDS011;5025;48.890;9.278;2022-09-12T17:28:39;1.60;;;1.50;;
9968;SDS011;5025;48.890;9.278;2022-09-12T17:31:06;1.50;;;1.40;;
9968;SDS011;5025;48.890;9.278;2022-09-12T17:33:34;1.20;;;1.20;;
9968;SDS011;5025;48.890;9.278;2022-09-12T17:36:04;1.57;;;1.50;;
9968;SDS011;5025;48.890;9.278;2022-09-12T17:38:39;1.40;;;1.30;;